Time;durP1;ratioP1;P1;durP2;ratioP2;P2;SDS_P1;SDS_P2;PMS_P1;PMS_P2;Temp;Humidity;BMP_temperature;BMP_pressure;BME280_temperature;BME280_humidity;BME280_pressure;Samples;Min_cycle;Max_cycle;Signal;HPM_P1;HPM_P2
2022/11/04 00:01:43;;;;;;;11.65;8.00;;;;;;;10.03;100.00;99994.22;5016220;28;20029;-75
2022/11/04 00:04:10;;;;;;;18.23;12.10;;;;;;;10.01;100.00;100003.94;5017381;28;20100;-77
2022/11/04 00:06:36;;;;;;;14.43;11.35;;;;;;;9.98;100.00;100004.22;5017412;28;20555;-75
2022/11/04 00:09:03;;;;;;;14.50;11.48;;;;;;;9.98;100.00;100012.00;5019557;28;20047;-75
2022/11/04 00:14:14;;;;;;;14.60;8.93;;;;;;;9.96;100.00;100026.84;5013247;28;20075;-75
2022/11/04 00:19:24;;;;;;;9.15;6.28;;;;;;;9.88;100.00;100028.53;5015030;28;20032;-75
2022/11/04 00:30:08;;;;;;;7.00;3.78;;;;;;;9.72;98.55;100036.84;5042217;28;20076;-76
2022/11/04 00:35:18;;;;;;;5.25;2.35;;;;;;;9.60;97.49;100033.59;5038442;28;20071;-76
2022/11/04 00:37:44;;;;;;;5.05;2.05;;;;;;;9.65;97.57;100046.16;5036206;28;20373;-77
2022/11/04 00:40:11;;;;;;;2.78;1.88;;;;;;;9.57;96.87;100045.03;5042253;28;20385;-77
2022/11/04 00:42:37;;;;;;;2.57;1.37;;;;;;;9.54;96.62;100041.94;5039013;28;20033;-76
2022/11/04 00:45:03;;;;;;;1.38;1.13;;;;;;;9.45;96.33;100033.19;5044106;28;20743;-76
2022/11/04 00:47:29;;;;;;;1.77;1.17;;;;;;;9.44;96.45;100054.88;5033549;28;20033;-76
2022/11/04 00:49:55;;;;;;;1.95;1.10;;;;;;;9.39;96.73;100057.03;5040978;28;20029;-76
2022/11/04 00:52:20;;;;;;;1.98;1.23;;;;;;;9.34;96.21;100054.03;5037403;28;20036;-76
2022/11/04 00:54:46;;;;;;;1.70;1.38;;;;;;;9.37;96.80;100061.56;5044112;28;20493;-76
2022/11/04 00:57:12;;;;;;;1.83;1.23;;;;;;;9.35;96.15;100066.06;5043571;28;20021;-76
2022/11/04 00:59:38;;;;;;;4.68;1.90;;;;;;;9.31;96.69;100060.31;5044432;28;20042;-75
2022/11/04 01:02:08;;;;;;;2.60;1.50;;;;;;;9.31;96.82;100069.84;5043451;28;20051;-76
2022/11/04 01:04:33;;;;;;;4.85;2.28;;;;;;;9.29;97.04;100076.94;5040320;28;20059;-76
2022/11/04 01:06:59;;;;;;;4.22;2.45;;;;;;;9.23;96.83;100077.47;5044257;28;20119;-76
2022/11/04 01:09:25;;;;;;;4.13;2.65;;;;;;;9.22;97.13;100081.00;5042736;28;20423;-76
2022/11/04 01:11:50;;;;;;;6.13;2.78;;;;;;;9.22;97.11;100093.94;5038153;28;20279;-76
2022/11/04 01:14:16;;;;;;;4.10;2.67;;;;;;;9.20;96.65;100098.44;5043355;28;20091;-76
2022/11/04 01:16:42;;;;;;;5.40;2.55;;;;;;;9.19;96.90;100097.63;5040760;28;20128;-75
2022/11/04 01:19:07;;;;;;;7.18;3.75;;;;;;;9.16;97.31;100094.47;5041212;28;20027;-76
2022/11/04 01:21:33;;;;;;;7.18;3.72;;;;;;;9.18;97.64;100097.78;5037685;28;20365;-76
2022/11/04 01:23:59;;;;;;;9.05;5.22;;;;;;;9.15;97.88;100100.59;5042339;28;20086;-77
2022/11/04 01:26:26;;;;;;;9.23;5.88;;;;;;;9.12;97.88;100085.34;5039138;28;20032;-75
2022/11/04 01:28:53;;;;;;;9.90;7.32;;;;;;;9.10;98.04;100076.91;5042622;28;20374;-76
2022/11/04 01:31:22;;;;;;;12.95;8.52;;;;;;;9.14;98.06;100084.28;5047211;28;20029;-76
2022/11/04 01:33:48;;;;;;;;;;;;;;;9.18;97.07;100090.00;5046652;28;20069;-76
2022/11/04 01:36:14;;;;;;;14.02;9.10;;;;;;;9.13;97.58;100094.75;5045841;28;19925;-76
2022/11/04 01:38:39;;;;;;;13.20;9.77;;;;;;;9.11;97.86;100099.22;5049465;28;20036;-78
2022/11/04 01:41:06;;;;;;;16.98;11.52;;;;;;;9.09;98.62;100095.97;5037659;28;20021;-77
2022/11/04 01:43:48;;;;;;;16.95;11.60;;;;;;;9.04;98.36;100099.75;5040398;28;20470;-76
2022/11/04 01:46:18;;;;;;;15.95;11.18;;;;;;;8.99;98.47;100106.28;5041703;28;20026;-76
2022/11/04 01:48:44;;;;;;;16.15;11.07;;;;;;;9.04;98.65;100117.88;5031375;28;20072;-76
2022/11/04 01:51:10;;;;;;;18.30;11.90;;;;;;;9.01;98.73;100123.31;5040857;28;20029;-76
2022/11/04 01:53:40;;;;;;;15.93;11.45;;;;;;;9.01;98.98;100119.94;5043585;28;20024;-76
2022/11/04 01:56:10;;;;;;;19.83;12.52;;;;;;;9.04;99.46;100125.63;5045301;28;20363;-77
2022/11/04 01:58:39;;;;;;;18.05;12.75;;;;;;;9.02;99.11;100127.53;5042599;28;20460;-76
2022/11/04 02:01:06;;;;;;;18.35;13.50;;;;;;;9.04;99.26;100130.00;5044250;28;20029;-76
2022/11/04 02:03:40;;;;;;;17.05;12.93;;;;;;;9.03;99.44;100142.09;5036623;28;20036;-76
2022/11/04 02:06:06;;;;;;;20.75;13.68;;;;;;;9.01;99.04;100146.59;5043883;28;20040;-76
2022/11/04 02:08:32;;;;;;;19.60;13.88;;;;;;;9.00;99.71;100150.16;5045335;28;20065;-76
2022/11/04 02:11:00;;;;;;;20.23;14.15;;;;;;;8.98;100.00;100152.03;5045598;28;20082;-76
2022/11/04 02:13:27;;;;;;;18.90;14.35;;;;;;;8.99;100.00;100143.31;5030151;28;20037;-77
2022/11/04 02:16:05;;;;;;;18.98;13.05;;;;;;;9.04;99.79;100151.50;5042829;28;20026;-76
2022/11/04 02:18:49;;;;;;;18.30;12.48;;;;;;;9.09;99.83;100152.88;5043862;28;20025;-76
2022/11/04 02:21:42;;;;;;;17.73;13.00;;;;;;;9.07;99.61;100147.03;5035357;28;20024;-78
2022/11/04 02:24:22;;;;;;;19.30;12.77;;;;;;;9.02;99.44;100150.81;5031648;28;20025;-76
2022/11/04 02:27:12;;;;;;;18.77;12.48;;;;;;;9.02;99.45;100144.84;5041999;28;20029;-76
2022/11/04 02:29:55;;;;;;;18.05;12.38;;;;;;;9.02;99.27;100153.41;5037112;28;20031;-75
2022/11/04 02:32:38;;;;;;;17.75;12.15;;;;;;;9.00;99.12;100149.31;5046639;28;20468;-76
2022/11/04 02:35:39;;;;;;;19.27;12.35;;;;;;;8.98;99.22;100159.78;5049974;28;20059;-77
2022/11/04 02:38:33;;;;;;;17.08;11.50;;;;;;;8.93;98.97;100150.78;5026040;28;20037;-76
2022/11/04 02:41:25;;;;;;;17.67;11.55;;;;;;;8.87;99.11;100159.06;5056492;28;20035;-76
2022/11/04 02:44:06;;;;;;;16.52;11.93;;;;;;;8.86;99.15;100158.25;5034595;28;20358;-77
2022/11/04 02:46:37;;;;;;;15.82;11.60;;;;;;;8.78;99.05;100163.25;5033899;28;20025;-76
2022/11/04 02:49:11;;;;;;;18.45;11.77;;;;;;;8.76;99.26;100159.97;5049680;28;20381;-76
2022/11/04 02:51:43;;;;;;;14.60;10.80;;;;;;;8.80;99.14;100168.31;5031304;28;20108;-76
2022/11/04 02:54:15;;;;;;;13.38;9.38;;;;;;;8.70;99.16;100163.91;5027906;28;20491;-76
2022/11/04 02:56:46;;;;;;;18.33;9.75;;;;;;;8.75;98.76;100171.28;5045288;28;20099;-76
2022/11/04 02:59:44;;;;;;;14.20;8.48;;;;;;;8.78;99.03;100176.19;5041042;28;20112;-76
2022/11/04 03:02:21;;;;;;;16.17;9.02;;;;;;;8.75;99.47;100171.28;5042445;28;20024;-77
2022/11/04 03:04:50;;;;;;;14.18;8.63;;;;;;;8.75;99.26;100181.59;5041119;28;20044;-76
2022/11/04 03:07:21;;;;;;;19.98;8.85;;;;;;;8.71;99.12;100185.38;5041894;28;20115;-77
2022/11/04 03:09:51;;;;;;;14.88;8.95;;;;;;;8.67;99.32;100189.19;5040421;28;20940;-77
2022/11/04 03:12:21;;;;;;;14.10;8.60;;;;;;;8.60;99.01;100193.22;5043801;28;20066;-76
2022/11/04 03:14:58;;;;;;;12.73;7.80;;;;;;;8.62;99.28;100202.50;5038464;28;20029;-77
2022/11/04 03:17:53;;;;;;;14.75;7.70;;;;;;;8.61;98.87;100200.06;5051474;28;20025;-76
2022/11/04 03:20:26;;;;;;;10.60;6.32;;;;;;;8.58;98.69;100220.97;5055055;28;20028;-76
2022/11/04 03:22:58;;;;;;;13.25;7.85;;;;;;;8.47;98.86;100204.59;5045762;28;20036;-77
2022/11/04 03:25:27;;;;;;;12.07;6.70;;;;;;;8.52;98.86;100217.13;5040539;28;20037;-76
2022/11/04 03:27:52;;;;;;;10.93;6.53;;;;;;;8.48;98.77;100211.38;5032736;28;20039;-76
2022/11/04 03:30:21;;;;;;;16.08;6.78;;;;;;;8.42;98.64;100217.06;5042924;28;20032;-75
2022/11/04 03:33:24;;;;;;;13.10;6.13;;;;;;;8.44;98.38;100217.78;5040939;28;20458;-76
2022/11/04 03:35:49;;;;;;;12.40;5.70;;;;;;;8.38;98.43;100210.53;5034930;28;20049;-75
2022/11/04 03:38:16;;;;;;;10.13;4.82;;;;;;;8.35;98.50;100202.97;5043135;28;20051;-77
2022/11/04 03:40:41;;;;;;;12.00;5.13;;;;;;;8.36;97.87;100212.41;5043634;28;20071;-76
2022/11/04 03:43:15;;;;;;;9.80;4.72;;;;;;;8.33;98.57;100212.63;5044215;28;20476;-76
2022/11/04 03:45:41;;;;;;;9.15;4.88;;;;;;;8.27;97.91;100207.16;5044437;28;20144;-76
2022/11/04 03:48:07;;;;;;;9.45;4.80;;;;;;;8.27;98.03;100215.72;5039856;28;20067;-76
2022/11/04 03:50:40;;;;;;;9.68;4.32;;;;;;;8.23;97.78;100222.06;5037235;28;20637;-76
2022/11/04 03:53:07;;;;;;;9.15;4.22;;;;;;;8.22;97.65;100225.59;5043008;28;20043;-76
2022/11/04 03:55:48;;;;;;;7.68;3.75;;;;;;;8.16;97.42;100215.78;5039891;28;20451;-75
2022/11/04 03:58:26;;;;;;;6.95;3.65;;;;;;;8.19;97.83;100238.75;5038039;28;20086;-76
2022/11/04 04:01:05;;;;;;;8.25;3.70;;;;;;;8.18;97.43;100242.28;5042553;28;20502;-76
2022/11/04 04:03:41;;;;;;;6.68;3.22;;;;;;;8.14;97.37;100233.13;5041473;28;20032;-76
2022/11/04 04:06:17;;;;;;;7.88;3.28;;;;;;;8.12;97.94;100237.63;5038386;28;20473;-76
2022/11/04 04:08:52;;;;;;;6.32;3.05;;;;;;;8.03;97.77;100226.28;5041187;28;20464;-76
2022/11/04 04:11:36;;;;;;;8.27;3.85;;;;;;;8.07;98.12;100234.59;5026434;28;20025;-76
2022/11/04 04:14:10;;;;;;;6.22;3.25;;;;;;;8.02;97.87;100228.97;5039312;28;20077;-76
2022/11/04 04:16:44;;;;;;;10.40;3.53;;;;;;;8.04;98.13;100237.44;5043029;28;20032;-76
2022/11/04 04:19:14;;;;;;;8.15;3.60;;;;;;;7.98;98.08;100229.22;5051097;28;20412;-76
2022/11/04 04:21:45;;;;;;;8.82;3.92;;;;;;;7.96;98.06;100232.88;5050162;28;20568;-75
2022/11/04 04:29:44;;;;;;;9.45;3.58;;;;;;;7.96;98.37;100241.44;5033140;28;20186;-76
2022/11/04 04:32:11;;;;;;;8.82;3.45;;;;;;;7.95;98.06;100244.94;5044536;28;20521;-76
2022/11/04 04:34:39;;;;;;;9.98;3.38;;;;;;;7.98;98.61;100244.72;5040116;28;20550;-76
2022/11/04 04:37:24;;;;;;;6.43;3.47;;;;;;;7.97;98.53;100247.41;5039624;28;20041;-76
2022/11/04 04:45:30;;;;;;;7.00;3.08;;;;;;;7.98;97.51;100260.22;5041035;28;20044;-76
2022/11/04 04:47:56;;;;;;;10.30;3.08;;;;;;;8.02;97.73;100270.28;5040714;28;20039;-75
2022/11/04 04:50:21;;;;;;;7.53;2.97;;;;;;;7.98;97.53;100262.81;5036860;28;20041;-76
2022/11/04 04:52:50;;;;;;;7.63;3.22;;;;;;;8.04;98.09;100263.25;5033287;28;20024;-76
2022/11/04 04:55:16;;;;;;;7.20;3.65;;;;;;;8.09;97.65;100266.28;5034678;28;20032;-76
2022/11/04 04:57:42;;;;;;;7.40;3.13;;;;;;;8.09;97.65;100266.28;5037473;28;20025;-75
2022/11/04 05:00:11;;;;;;;5.72;2.88;;;;;;;8.13;97.86;100262.50;5035236;28;20039;-76
2022/11/04 05:02:36;;;;;;;6.93;3.28;;;;;;;8.07;98.16;100252.66;5037030;28;20025;-76
2022/11/04 05:05:02;;;;;;;9.50;3.10;;;;;;;8.10;97.84;100257.59;5042427;28;20436;-76
2022/11/04 05:07:28;;;;;;;6.40;3.33;;;;;;;8.13;97.30;100263.31;5033442;28;20036;-75
2022/11/04 05:09:54;;;;;;;8.90;3.45;;;;;;;8.10;97.63;100263.59;5041769;28;20041;-75
2022/11/04 05:12:19;;;;;;;8.32;3.38;;;;;;;8.15;97.18;100276.13;5033667;28;20213;-75
2022/11/04 05:14:45;;;;;;;8.38;3.25;;;;;;;8.14;97.44;100277.91;5041148;28;20392;-75
2022/11/04 05:17:10;;;;;;;8.20;3.00;;;;;;;8.16;97.40;100280.34;5037284;28;20028;-76
2022/11/04 05:19:35;;;;;;;6.93;3.25;;;;;;;8.13;97.41;100288.34;5036790;28;20489;-76
2022/11/04 05:22:01;;;;;;;6.22;2.78;;;;;;;8.11;97.19;100285.06;5041491;28;20523;-76
2022/11/04 05:24:27;;;;;;;4.63;2.72;;;;;;;8.09;97.16;100292.13;5045451;28;20401;-76
2022/11/04 05:26:52;;;;;;;6.82;2.67;;;;;;;7.99;96.99;100287.69;5049808;28;20040;-76
2022/11/04 05:29:18;;;;;;;4.97;2.45;;;;;;;8.04;96.51;100304.56;5044696;28;20124;-75
2022/11/04 05:31:44;;;;;;;5.18;2.83;;;;;;;8.01;96.66;100304.81;5045729;28;20367;-76
2022/11/04 05:34:10;;;;;;;8.32;2.80;;;;;;;7.95;97.31;100301.75;5041285;28;20037;-74
2022/11/04 05:36:36;;;;;;;8.05;3.15;;;;;;;7.87;97.39;100298.16;5046135;28;20045;-79
2022/11/04 05:39:02;;;;;;;7.18;2.92;;;;;;;7.93;97.37;100313.97;5045358;28;20128;-75
2022/11/04 05:41:27;;;;;;;8.18;2.72;;;;;;;7.91;97.28;100309.88;5039307;28;20024;-75
2022/11/04 05:43:55;;;;;;;6.38;2.70;;;;;;;7.90;97.30;100309.03;5044345;28;20059;-75
2022/11/04 05:46:21;;;;;;;7.60;2.65;;;;;;;7.93;97.60;100318.34;5040845;28;20025;-75
2022/11/04 05:48:47;;;;;;;7.88;2.60;;;;;;;7.95;97.73;100327.59;5044621;28;20056;-76
2022/11/04 05:51:18;;;;;;;6.85;2.75;;;;;;;7.94;97.41;100323.38;5051182;28;20465;-77
2022/11/04 05:53:44;;;;;;;6.13;2.42;;;;;;;7.95;97.41;100327.59;5044544;28;20413;-76
2022/11/04 05:56:09;;;;;;;3.60;2.30;;;;;;;7.96;97.00;100329.22;5035255;28;20058;-75
2022/11/04 05:58:35;;;;;;;6.82;2.50;;;;;;;7.91;97.66;100336.53;5045592;28;20871;-75
2022/11/04 06:01:23;;;;;;;5.28;2.30;;;;;;;7.92;97.49;100332.19;5043252;28;20017;-75
2022/11/04 06:03:49;;;;;;;7.13;3.08;;;;;;;7.85;97.32;100342.16;5032402;28;20029;-75
2022/11/04 06:06:15;;;;;;;6.38;2.70;;;;;;;7.85;97.17;100336.97;5035136;28;20029;-75
2022/11/04 06:08:40;;;;;;;5.82;2.42;;;;;;;7.86;96.72;100348.97;5044019;28;20064;-76
2022/11/04 06:11:06;;;;;;;5.78;2.47;;;;;;;7.77;96.90;100339.34;5043530;28;20128;-76
2022/11/04 06:13:31;;;;;;;6.13;2.67;;;;;;;7.72;96.53;100341.47;5041492;28;20473;-76
2022/11/04 06:15:57;;;;;;;5.47;2.60;;;;;;;7.73;96.67;100358.59;5037129;28;20039;-78
2022/11/04 06:18:22;;;;;;;5.15;1.90;;;;;;;7.69;96.09;100352.03;5042363;28;20336;-77
2022/11/04 06:20:48;;;;;;;6.30;2.55;;;;;;;7.70;96.91;100358.84;5041201;28;20081;-76
2022/11/04 06:23:13;;;;;;;5.63;2.35;;;;;;;7.68;97.00;100366.72;5040965;28;20071;-76
2022/11/04 06:25:38;;;;;;;5.40;2.40;;;;;;;7.68;96.92;100361.56;5045191;28;20461;-77
2022/11/04 06:28:04;;;;;;;7.43;2.30;;;;;;;7.69;97.74;100362.38;5038330;28;20514;-76
2022/11/04 06:30:29;;;;;;;9.77;3.08;;;;;;;7.70;97.74;100364.81;5039984;28;20516;-76
2022/11/04 06:32:54;;;;;;;5.55;2.35;;;;;;;7.69;97.48;100367.53;5036827;28;20649;-76
2022/11/04 06:35:20;;;;;;;7.43;2.40;;;;;;;7.67;97.61;100359.06;5056205;28;20317;-76
2022/11/04 06:37:45;;;;;;;5.75;2.30;;;;;;;7.70;98.13;100369.16;5038319;28;20029;-76
2022/11/04 06:40:11;;;;;;;7.20;2.22;;;;;;;7.75;98.42;100382.56;5048674;28;20028;-76
2022/11/04 06:42:37;;;;;;;6.80;2.60;;;;;;;7.73;98.22;100380.06;5036043;28;20031;-76
2022/11/04 06:45:02;;;;;;;9.68;2.45;;;;;;;7.72;97.90;100372.44;5036905;28;20520;-77
2022/11/04 06:47:28;;;;;;;6.28;2.70;;;;;;;7.71;97.71;100375.97;5036660;28;20024;-76
2022/11/04 06:49:53;;;;;;;7.78;2.80;;;;;;;7.66;97.48;100383.25;5040124;28;20530;-76
2022/11/04 06:52:18;;;;;;;6.30;3.10;;;;;;;7.66;98.14;100383.25;5051145;28;20036;-77
2022/11/04 06:54:45;;;;;;;6.85;2.40;;;;;;;7.67;98.19;100387.47;5046938;28;20021;-76
2022/11/04 06:57:11;;;;;;;5.28;2.75;;;;;;;7.68;98.18;100391.69;5046299;28;20488;-76
2022/11/04 06:59:36;;;;;;;5.40;2.20;;;;;;;7.70;97.84;100387.25;5037491;28;20029;-76
2022/11/04 07:02:01;;;;;;;6.38;3.05;;;;;;;7.69;97.73;100395.94;5041535;28;20433;-75
2022/11/04 07:04:27;;;;;;;8.48;2.85;;;;;;;7.66;98.15;100390.97;5054408;28;20076;-77
2022/11/04 07:06:52;;;;;;;7.38;2.35;;;;;;;7.67;97.63;100400.38;5042015;28;20461;-76
2022/11/04 07:09:18;;;;;;;8.88;2.38;;;;;;;7.66;97.55;100401.31;5045047;28;20445;-76
2022/11/04 07:11:44;;;;;;;6.10;1.98;;;;;;;7.65;97.56;100408.22;5044578;28;20036;-76
2022/11/04 07:14:10;;;;;;;5.72;1.95;;;;;;;7.60;97.00;100405.19;5045939;28;20029;-77
2022/11/04 07:16:35;;;;;;;8.88;2.92;;;;;;;7.62;96.87;100402.47;5037079;28;20024;-76
2022/11/04 07:19:01;;;;;;;8.85;2.67;;;;;;;7.56;97.33;100398.59;5039076;28;20033;-76
2022/11/04 07:21:27;;;;;;;5.97;2.17;;;;;;;7.61;97.80;100406.00;5043249;28;20039;-77
2022/11/04 07:23:52;;;;;;;5.93;3.10;;;;;;;7.65;97.96;100407.41;5030405;28;20485;-78
2022/11/04 07:26:18;;;;;;;8.75;2.85;;;;;;;7.67;97.70;100410.69;5036138;28;20024;-76
2022/11/04 07:28:43;;;;;;;6.10;2.78;;;;;;;7.64;97.47;100398.84;5042046;28;20017;-76
2022/11/04 07:31:11;;;;;;;7.70;2.90;;;;;;;7.69;97.74;100403.66;5047733;28;20017;-76
2022/11/04 07:33:36;;;;;;;6.85;2.78;;;;;;;7.68;97.74;100413.19;5046211;28;20025;-76
2022/11/04 07:36:04;;;;;;;7.15;2.92;;;;;;;7.67;97.41;100416.66;5043399;28;20699;-75
2022/11/04 07:38:29;;;;;;;6.05;2.70;;;;;;;7.67;97.07;100426.19;5042516;28;20021;-76
2022/11/04 07:40:57;;;;;;;7.53;2.65;;;;;;;7.68;96.89;100422.66;5043866;28;20024;-75
2022/11/04 07:43:22;;;;;;;6.68;2.13;;;;;;;7.65;96.25;100428.88;5049059;28;20032;-75
2022/11/04 07:46:01;;;;;;;4.97;1.92;;;;;;;7.66;97.08;100427.94;5051484;28;20377;-75
2022/11/04 07:48:26;;;;;;;5.53;2.10;;;;;;;7.64;97.16;100421.25;5041284;28;20028;-75
2022/11/04 07:51:01;;;;;;;5.90;2.35;;;;;;;7.63;96.93;100425.59;5048656;28;20039;-76
2022/11/04 07:53:28;;;;;;;6.63;2.58;;;;;;;7.58;96.62;100432.06;5034458;28;20029;-76
2022/11/04 07:55:57;;;;;;;7.78;3.15;;;;;;;7.61;97.38;100436.97;5032039;28;20208;-75
2022/11/04 07:58:24;;;;;;;7.63;3.42;;;;;;;7.60;97.33;100435.31;5037754;28;20037;-75
2022/11/04 08:00:50;;;;;;;7.35;3.53;;;;;;;7.63;97.16;100440.28;5035012;28;20087;-77
2022/11/04 08:03:16;;;;;;;11.13;4.43;;;;;;;7.63;97.84;100435.13;5040314;28;20492;-76
2022/11/04 08:05:41;;;;;;;12.35;3.67;;;;;;;7.64;97.42;100436.75;5040529;28;20036;-76
2022/11/04 08:08:07;;;;;;;9.52;4.70;;;;;;;7.67;97.81;100441.66;5039999;28;20037;-76
2022/11/04 08:10:33;;;;;;;12.43;5.10;;;;;;;7.69;97.98;100444.97;5041094;28;20367;-76
2022/11/04 08:12:59;;;;;;;13.70;4.70;;;;;;;7.70;97.74;100446.59;5042572;28;20087;-75
2022/11/04 08:15:24;;;;;;;12.63;5.28;;;;;;;7.69;97.94;100439.81;5036097;28;20021;-76
2022/11/04 08:17:49;;;;;;;14.30;5.20;;;;;;;7.71;98.23;100448.25;5043828;28;20111;-76
2022/11/04 08:20:15;;;;;;;12.73;5.10;;;;;;;7.76;97.93;100448.72;5045807;28;20059;-76
2022/11/04 08:22:40;;;;;;;14.60;5.22;;;;;;;7.78;97.86;100459.75;5038924;28;20492;-76
2022/11/04 08:25:06;;;;;;;11.52;5.40;;;;;;;7.82;98.66;100456.00;5040546;28;20436;-76
2022/11/04 08:27:33;;;;;;;16.02;5.65;;;;;;;7.85;98.59;100460.09;5040689;28;20028;-76
2022/11/04 08:29:58;;;;;;;10.40;5.50;;;;;;;7.89;98.78;100472.66;5037675;28;20036;-75
2022/11/04 08:32:23;;;;;;;11.45;5.38;;;;;;;7.92;98.54;100476.78;5037513;28;20476;-75
2022/11/04 08:34:49;;;;;;;12.43;5.00;;;;;;;7.97;98.60;100480.66;5029708;28;20384;-77
2022/11/04 08:37:15;;;;;;;13.85;5.70;;;;;;;8.02;99.06;100488.03;5051724;28;20121;-76
2022/11/04 08:39:41;;;;;;;13.18;5.57;;;;;;;8.05;98.77;100494.75;5040653;28;20060;-75
2022/11/04 08:42:07;;;;;;;12.48;5.55;;;;;;;8.07;99.20;100485.13;5053911;28;20137;-76
2022/11/04 08:44:32;;;;;;;13.32;6.38;;;;;;;8.13;98.87;100492.38;5040795;28;20026;-76
2022/11/04 08:46:59;;;;;;;14.18;5.72;;;;;;;8.18;98.76;100492.88;5050574;28;20030;-76
2022/11/04 08:49:24;;;;;;;13.73;6.70;;;;;;;8.21;98.59;100497.81;5030150;28;20050;-77
2022/11/04 08:51:56;;;;;;;14.80;6.30;;;;;;;8.23;99.31;100504.50;5051329;28;20481;-75
2022/11/04 08:54:22;;;;;;;12.00;5.35;;;;;;;8.30;99.23;100502.25;5030731;28;20021;-75
2022/11/04 08:56:48;;;;;;;11.00;5.22;;;;;;;8.36;99.08;100501.81;5037209;28;20499;-75
2022/11/04 08:59:13;;;;;;;13.27;5.53;;;;;;;8.39;99.39;100501.59;5037155;28;20028;-76
2022/11/04 09:01:41;;;;;;;10.90;4.88;;;;;;;8.47;99.28;100513.91;5038042;28;20530;-75
2022/11/04 09:04:06;;;;;;;11.50;5.20;;;;;;;8.50;99.22;100518.84;5035750;28;20039;-76
2022/11/04 09:06:37;;;;;;;14.65;5.50;;;;;;;8.56;99.57;100513.19;5036910;28;20104;-76
2022/11/04 09:09:04;;;;;;;12.60;5.32;;;;;;;8.64;99.30;100525.50;5044554;28;20764;-76
2022/11/04 09:11:31;;;;;;;10.32;4.70;;;;;;;8.72;99.14;100533.50;5041759;28;20039;-76
2022/11/04 09:14:01;;;;;;;9.98;5.18;;;;;;;8.71;99.05;100521.50;5038418;28;20060;-77
2022/11/04 09:16:28;;;;;;;11.13;5.18;;;;;;;8.85;99.04;100529.00;5038753;28;20025;-76
2022/11/04 09:18:55;;;;;;;8.98;4.88;;;;;;;8.92;98.67;100535.31;5039323;28;20492;-75
2022/11/04 09:21:21;;;;;;;15.50;5.35;;;;;;;8.95;98.68;100529.94;5038697;28;20029;-76
2022/11/04 09:23:46;;;;;;;9.52;4.40;;;;;;;9.05;98.58;100533.41;5039922;28;20041;-76
2022/11/04 09:26:14;;;;;;;9.93;4.47;;;;;;;9.14;98.33;100538.81;5042743;28;20037;-76
2022/11/04 09:28:40;;;;;;;10.13;4.45;;;;;;;9.19;98.49;100539.25;5041142;28;20140;-76
2022/11/04 09:31:15;;;;;;;11.90;4.47;;;;;;;9.27;98.72;100540.25;5029206;28;20537;-76
2022/11/04 09:33:41;;;;;;;11.27;4.93;;;;;;;9.38;98.51;100536.81;5033503;28;20034;-76
2022/11/04 09:36:08;;;;;;;9.60;4.13;;;;;;;9.46;98.28;100544.78;5038039;28;20041;-77
2022/11/04 09:38:34;;;;;;;13.52;4.47;;;;;;;9.54;97.80;100536.38;5040601;28;20518;-77
2022/11/04 09:40:59;;;;;;;12.77;4.85;;;;;;;9.65;97.08;100543.28;5038920;28;20554;-76
2022/11/04 09:43:49;;;;;;;11.32;5.70;;;;;;;9.71;97.16;100545.38;5040068;28;20553;-76
2022/11/04 09:46:18;;;;;;;10.18;4.70;;;;;;;9.77;97.08;100547.44;5033640;28;20032;-76
2022/11/04 09:48:54;;;;;;;10.55;4.88;;;;;;;9.79;96.89;100555.91;5043542;28;20032;-76
2022/11/04 09:51:23;;;;;;;10.50;4.72;;;;;;;9.80;95.58;100558.34;5036578;28;20036;-77
2022/11/04 09:53:57;;;;;;;11.45;4.85;;;;;;;9.83;95.37;100567.66;5029652;28;20072;-77
2022/11/04 09:56:41;;;;;;;12.00;5.65;;;;;;;9.90;95.38;100570.56;5033782;28;20160;-76
2022/11/04 09:59:10;;;;;;;11.77;4.85;;;;;;;9.89;95.70;100566.34;5032516;28;20025;-76
2022/11/04 10:01:58;;;;;;;12.25;5.35;;;;;;;9.97;95.37;100580.28;5041584;28;20021;-80
2022/11/04 10:04:33;;;;;;;14.77;5.45;;;;;;;9.95;94.95;100581.38;5038518;28;20020;-78
2022/11/04 10:07:40;;;;;;;9.95;5.35;;;;;;;9.98;95.70;100591.50;5041158;28;20048;-77
2022/11/04 10:10:20;;;;;;;13.27;5.47;;;;;;;9.97;95.92;100590.66;5037220;28;20074;-77
2022/11/04 10:12:55;;;;;;;8.95;5.03;;;;;;;10.06;95.74;100600.25;5041954;28;20468;-77
2022/11/04 10:15:37;;;;;;;11.98;5.25;;;;;;;10.11;95.58;100605.88;5036426;28;20044;-77
2022/11/04 10:18:39;;;;;;;12.27;4.90;;;;;;;10.17;96.15;100603.72;5044922;28;20259;-77
2022/11/04 10:21:27;;;;;;;15.40;7.18;;;;;;;10.19;95.53;100601.81;5041900;28;20389;-77
2022/11/04 10:24:19;;;;;;;12.77;6.45;;;;;;;10.23;95.68;100606.66;5045574;28;20474;-78
2022/11/04 10:26:50;;;;;;;13.25;6.03;;;;;;;10.17;94.87;100611.50;5048747;28;20068;-77
2022/11/04 10:29:25;;;;;;;16.10;6.28;;;;;;;10.18;94.50;100619.16;5035357;28;20025;-77
2022/11/04 10:31:53;;;;;;;18.88;6.05;;;;;;;10.17;95.72;100614.91;5051350;28;20024;-78
2022/11/04 10:34:34;;;;;;;15.03;7.37;;;;;;;10.21;94.11;100623.28;5042317;28;20375;-77
2022/11/04 10:37:01;;;;;;;14.52;6.85;;;;;;;10.17;94.59;100617.50;5039083;28;20083;-77
2022/11/04 10:39:29;;;;;;;10.85;7.03;;;;;;;10.21;94.42;100618.09;5044131;28;20024;-78
2022/11/04 10:41:56;;;;;;;11.43;6.97;;;;;;;10.19;94.34;100630.34;5036955;28;20030;-77
2022/11/04 10:44:33;;;;;;;12.90;7.20;;;;;;;10.23;94.62;100634.31;5039130;28;20385;-77
2022/11/04 10:47:10;;;;;;;13.93;6.25;;;;;;;10.29;93.83;100633.84;5033988;28;20026;-78
2022/11/04 10:49:46;;;;;;;13.75;7.20;;;;;;;10.25;93.69;100629.84;5039161;28;20477;-78
2022/11/04 10:52:12;;;;;;;12.63;6.55;;;;;;;10.25;94.15;100641.03;5055406;28;20041;-77
2022/11/04 10:54:43;;;;;;;13.65;6.85;;;;;;;10.26;94.78;100637.50;5043480;28;20021;-77
2022/11/04 10:57:11;;;;;;;11.13;6.15;;;;;;;10.31;93.79;100645.72;5040179;28;20036;-77
2022/11/04 10:59:49;;;;;;;12.48;6.82;;;;;;;10.34;94.76;100649.84;5032955;28;20025;-78
2022/11/04 11:02:15;;;;;;;11.13;6.88;;;;;;;10.34;95.36;100639.47;5041346;28;20040;-77
2022/11/04 11:04:43;;;;;;;14.07;7.55;;;;;;;10.33;95.25;100633.47;5049118;28;20028;-78
2022/11/04 11:07:10;;;;;;;15.00;8.57;;;;;;;10.38;95.01;100635.69;5053593;28;20024;-78
2022/11/04 11:09:35;;;;;;;16.10;8.30;;;;;;;10.45;94.24;100639.41;5047158;28;20075;-78
2022/11/04 11:12:05;;;;;;;17.85;8.02;;;;;;;10.47;93.68;100640.06;5056649;28;20056;-78
2022/11/04 11:14:35;;;;;;;13.77;7.88;;;;;;;10.50;94.53;100634.66;5047358;28;20052;-78
2022/11/04 11:17:19;;;;;;;12.43;8.35;;;;;;;10.52;94.69;100632.72;5039263;28;20062;-77
2022/11/04 11:19:59;;;;;;;18.95;8.55;;;;;;;10.60;94.43;100632.88;5045316;28;20033;-77
2022/11/04 11:22:27;;;;;;;13.25;8.15;;;;;;;10.64;94.39;100644.66;5053244;28;20366;-78
2022/11/04 11:24:52;;;;;;;17.95;8.63;;;;;;;10.64;93.47;100642.06;5042210;28;20025;-78
2022/11/04 11:27:21;;;;;;;13.77;9.10;;;;;;;10.68;93.34;100652.19;5041295;28;20036;-78
2022/11/04 11:29:54;;;;;;;18.45;9.73;;;;;;;10.63;92.35;100645.63;5031872;28;20028;-77
2022/11/04 11:32:34;;;;;;;16.88;8.50;;;;;;;10.65;92.47;100642.88;5033005;28;20067;-77
2022/11/04 11:35:01;;;;;;;17.55;10.40;;;;;;;10.62;92.26;100649.16;5039109;28;20116;-78
2022/11/04 11:37:30;;;;;;;14.77;8.32;;;;;;;10.71;93.58;100654.50;5035050;28;20029;-77
2022/11/04 11:39:56;;;;;;;15.85;9.45;;;;;;;10.76;92.47;100654.94;5010854;28;20068;-78
2022/11/04 11:42:22;;;;;;;13.80;9.32;;;;;;;10.80;93.03;100651.16;5026834;28;20418;-78
2022/11/04 11:44:58;;;;;;;13.77;9.63;;;;;;;10.82;92.93;100646.63;5041959;28;20083;-77
2022/11/04 11:47:24;;;;;;;18.00;10.93;;;;;;;10.84;93.11;100647.34;5041273;28;20025;-77
2022/11/04 11:50:08;;;;;;;15.48;10.05;;;;;;;10.91;93.20;100653.66;5034847;28;20033;-77
2022/11/04 11:52:38;;;;;;;18.70;9.93;;;;;;;10.92;93.12;100655.28;5040852;28;20032;-77
2022/11/04 11:55:09;;;;;;;12.90;8.63;;;;;;;10.97;92.56;100657.50;5034426;28;20029;-78
2022/11/04 11:57:43;;;;;;;16.92;10.15;;;;;;;10.94;92.21;100666.34;5033723;28;20017;-78
2022/11/04 12:00:14;;;;;;;17.55;10.75;;;;;;;10.99;91.65;100669.38;5032622;28;20025;-77
2022/11/04 12:02:57;;;;;;;18.10;11.20;;;;;;;10.98;91.44;100665.13;5008167;28;20026;-78
2022/11/04 12:05:37;;;;;;;17.98;10.27;;;;;;;10.95;90.94;100678.34;5016742;28;20025;-78
2022/11/04 12:08:37;;;;;;;14.45;10.57;;;;;;;10.98;91.48;100675.50;5017711;28;20026;-77